createdAt,value
2023-05-04T00:02:11.506Z,5.50
2023-05-04T00:04:39.275Z,6.03
2023-05-04T00:07:07.059Z,7.60
2023-05-04T00:09:36.549Z,7.43
2023-05-04T00:12:04.680Z,7.97
2023-05-04T00:14:32.280Z,4.90
2023-05-04T00:17:00.029Z,5.97
2023-05-04T00:19:27.765Z,5.53
2023-05-04T00:21:55.378Z,6.13
2023-05-04T00:24:23.131Z,5.30
2023-05-04T00:26:52.096Z,6.70
2023-05-04T00:29:20.189Z,6.03
2023-05-04T00:31:48.013Z,5.80
2023-05-04T00:34:16.149Z,5.13
2023-05-04T00:36:43.768Z,6.20
2023-05-04T00:39:11.735Z,6.80
2023-05-04T00:41:39.435Z,5.50
2023-05-04T00:44:08.673Z,6.60
2023-05-04T00:46:38.301Z,6.87
2023-05-04T00:49:07.668Z,5.70
2023-05-04T00:51:36.676Z,5.70
2023-05-04T00:54:05.134Z,7.03
2023-05-04T00:56:34.086Z,5.87
2023-05-04T00:59:01.935Z,5.57
2023-05-04T01:01:31.309Z,6.77
2023-05-04T01:03:59.325Z,6.20
2023-05-04T01:06:36.161Z,5.70
2023-05-04T01:09:12.141Z,8.47
2023-05-04T01:11:45.118Z,7.53
2023-05-04T01:14:15.509Z,6.00
2023-05-04T01:16:44.507Z,6.10
2023-05-04T01:19:12.334Z,6.00
2023-05-04T01:21:41.604Z,6.70
2023-05-04T01:24:09.439Z,7.77
2023-05-04T01:26:41.785Z,7.10
2023-05-04T01:29:14.526Z,7.03
2023-05-04T01:31:44.547Z,6.73
2023-05-04T01:34:12.988Z,7.13
2023-05-04T01:36:43.313Z,6.53
2023-05-04T01:39:11.195Z,6.47
2023-05-04T01:41:38.803Z,7.33
2023-05-04T01:44:07.076Z,6.37
2023-05-04T01:46:34.861Z,6.37
2023-05-04T01:49:02.848Z,7.40
2023-05-04T01:51:30.464Z,7.37
2023-05-04T01:53:59.559Z,5.37
2023-05-04T01:56:27.179Z,4.87
2023-05-04T01:58:55.198Z,6.13
2023-05-04T02:01:22.822Z,4.33
2023-05-04T02:03:50.806Z,5.03
2023-05-04T02:06:18.520Z,6.00
2023-05-04T02:08:47.848Z,4.60
2023-05-04T02:11:16.926Z,4.77
2023-05-04T02:13:46.512Z,5.00
2023-05-04T02:16:14.282Z,5.53
2023-05-04T02:18:42.172Z,5.50
2023-05-04T02:21:09.967Z,5.93
2023-05-04T02:23:37.589Z,7.30
2023-05-04T02:26:05.232Z,7.40
2023-05-04T02:28:34.456Z,7.37
2023-05-04T02:31:02.808Z,8.33
2023-05-04T02:33:31.133Z,5.97
2023-05-04T02:35:58.731Z,6.90
2023-05-04T02:38:27.576Z,7.87
2023-05-04T02:40:55.329Z,6.43
2023-05-04T02:43:22.962Z,7.40
2023-05-04T02:45:52.428Z,7.57
2023-05-04T02:48:21.200Z,9.07
2023-05-04T02:50:49.112Z,10.83
2023-05-04T02:53:16.874Z,8.27
2023-05-04T02:55:45.192Z,7.13
2023-05-04T02:58:12.898Z,8.43
2023-05-04T03:00:40.722Z,9.47
2023-05-04T03:03:09.749Z,8.23
2023-05-04T03:05:37.895Z,8.57
2023-05-04T03:08:05.955Z,8.13
2023-05-04T03:10:33.880Z,7.77
2023-05-04T03:13:05.942Z,6.53
2023-05-04T03:15:33.900Z,6.73
2023-05-04T03:18:02.400Z,7.13
2023-05-04T03:20:33.089Z,6.23
2023-05-04T03:23:02.285Z,5.97
2023-05-04T03:25:31.596Z,6.93
2023-05-04T03:27:59.975Z,7.40
2023-05-04T03:30:27.767Z,7.40
2023-05-04T03:32:58.277Z,7.83
2023-05-04T03:35:26.159Z,7.57
2023-05-04T03:37:57.635Z,4.73
2023-05-04T03:40:25.790Z,5.30
2023-05-04T03:42:55.105Z,5.20
2023-05-04T03:45:28.448Z,4.97
2023-05-04T03:47:56.250Z,5.93
2023-05-04T03:50:24.493Z,5.73
2023-05-04T03:52:52.143Z,6.43
2023-05-04T03:55:24.451Z,5.83
2023-05-04T03:57:52.539Z,6.73
2023-05-04T04:00:20.899Z,7.17
2023-05-04T04:02:57.444Z,8.43
2023-05-04T04:05:25.389Z,8.53
2023-05-04T04:07:54.453Z,8.43
2023-05-04T04:10:22.315Z,10.03
2023-05-04T04:12:51.386Z,10.60
2023-05-04T04:15:19.204Z,12.30
2023-05-04T04:17:47.074Z,10.80
2023-05-04T04:20:15.243Z,10.90
2023-05-04T04:22:42.926Z,11.37
2023-05-04T04:25:10.692Z,9.47
2023-05-04T04:27:38.562Z,10.17
2023-05-04T04:30:09.121Z,8.27
2023-05-04T04:32:37.447Z,6.77
2023-05-04T04:35:06.809Z,6.37
2023-05-04T04:37:34.438Z,5.60
2023-05-04T04:40:03.270Z,5.33
2023-05-04T04:42:31.027Z,7.23
2023-05-04T04:44:58.630Z,6.07
2023-05-04T04:47:27.801Z,8.43
2023-05-04T04:49:55.592Z,7.27
2023-05-04T04:52:23.742Z,11.40
2023-05-04T04:54:51.804Z,11.70
2023-05-04T04:57:19.525Z,10.87
2023-05-04T04:59:47.296Z,11.60
2023-05-04T05:02:15.267Z,13.47
2023-05-04T05:04:44.248Z,11.20
2023-05-04T05:07:11.927Z,13.40
2023-05-04T05:09:39.903Z,14.17
2023-05-04T05:12:07.794Z,17.03
2023-05-04T05:14:35.750Z,14.57
2023-05-04T05:17:04.905Z,12.87
2023-05-04T05:19:36.902Z,15.23
2023-05-04T05:22:05.968Z,17.53
2023-05-04T05:24:33.828Z,16.07
2023-05-04T05:27:01.779Z,14.13
2023-05-04T05:29:29.592Z,16.47
2023-05-04T05:31:57.231Z,14.67
2023-05-04T05:34:25.015Z,14.27
2023-05-04T05:36:52.615Z,16.53
2023-05-04T05:39:21.590Z,16.23
2023-05-04T05:41:49.230Z,17.70
2023-05-04T05:44:16.971Z,16.57
2023-05-04T05:46:44.926Z,17.80
2023-05-04T05:49:12.597Z,18.97
2023-05-04T05:51:40.217Z,16.10
2023-05-04T05:54:07.928Z,16.57
2023-05-04T05:56:36.885Z,15.27
2023-05-04T05:59:04.578Z,16.50
2023-05-04T06:01:32.424Z,16.13
2023-05-04T06:04:00.395Z,15.47
2023-05-04T06:06:28.210Z,16.97
2023-05-04T06:08:55.813Z,14.33
2023-05-04T06:11:23.416Z,14.27
2023-05-04T06:13:52.490Z,16.10
2023-05-04T06:16:20.319Z,14.90
2023-05-04T06:18:47.998Z,16.63
2023-05-04T06:21:15.845Z,14.53
2023-05-04T06:23:43.551Z,13.00
2023-05-04T06:26:11.401Z,13.73
2023-05-04T06:28:38.997Z,13.23
2023-05-04T06:31:08.546Z,15.17
2023-05-04T06:33:36.275Z,14.47
2023-05-04T06:36:04.035Z,13.63
2023-05-04T06:38:31.625Z,13.53
2023-05-04T06:40:59.433Z,13.33
2023-05-04T06:43:27.080Z,13.70
2023-05-04T06:45:54.752Z,13.50
2023-05-04T06:48:23.732Z,12.50
2023-05-04T06:50:51.369Z,14.33
2023-05-04T06:53:18.965Z,13.10
2023-05-04T06:55:46.732Z,12.27
2023-05-04T06:58:14.387Z,12.27
2023-05-04T07:00:43.559Z,11.30
2023-05-04T07:03:11.460Z,10.83
2023-05-04T07:05:40.558Z,10.57
2023-05-04T07:08:09.684Z,11.70
2023-05-04T07:10:37.591Z,9.67
2023-05-04T07:13:05.828Z,12.03
2023-05-04T07:15:34.507Z,11.50
2023-05-04T07:18:02.409Z,10.53
2023-05-04T07:20:30.115Z,9.73
2023-05-04T07:22:59.232Z,10.90
2023-05-04T07:25:27.560Z,11.43
2023-05-04T07:27:55.480Z,11.23
2023-05-04T07:30:23.492Z,9.00
2023-05-04T07:32:51.884Z,9.17
2023-05-04T07:35:19.932Z,10.43
2023-05-04T07:37:47.858Z,9.73
2023-05-04T07:40:16.937Z,10.37
2023-05-04T07:42:44.668Z,9.93
2023-05-04T07:45:12.279Z,8.23
2023-05-04T07:47:39.924Z,7.50
2023-05-04T07:50:08.839Z,7.17
2023-05-04T07:52:36.593Z,7.80
2023-05-04T07:55:04.537Z,7.03
2023-05-04T07:57:35.815Z,6.97
2023-05-04T08:00:04.842Z,7.23
2023-05-04T08:02:41.202Z,6.37
2023-05-04T08:05:09.640Z,7.43
2023-05-04T08:07:37.248Z,7.17
2023-05-04T08:10:05.876Z,6.67
2023-05-04T08:12:35.142Z,6.67
2023-05-04T08:15:03.639Z,8.20
2023-05-04T08:17:31.812Z,6.37
2023-05-04T08:19:59.470Z,6.67
2023-05-04T08:22:27.083Z,6.10
2023-05-04T08:24:54.798Z,5.03
2023-05-04T08:27:22.858Z,5.57
2023-05-04T08:29:52.179Z,5.17
2023-05-04T08:32:19.788Z,5.40
2023-05-04T08:34:47.374Z,4.73
2023-05-04T08:37:16.010Z,4.47
2023-05-04T08:39:43.803Z,5.63
2023-05-04T08:42:12.064Z,3.93
2023-05-04T08:44:40.334Z,6.20
2023-05-04T08:47:10.883Z,4.83
2023-05-04T08:49:38.928Z,4.80
2023-05-04T08:52:09.234Z,5.60
2023-05-04T08:54:39.666Z,4.33
2023-05-04T08:57:07.403Z,4.40
2023-05-04T08:59:36.353Z,4.87
2023-05-04T09:02:05.131Z,5.47
2023-05-04T09:04:34.205Z,4.20
2023-05-04T09:07:02.161Z,5.73
2023-05-04T09:09:31.337Z,5.23
2023-05-04T09:11:59.729Z,4.93
2023-05-04T09:14:34.673Z,4.47
2023-05-04T09:17:03.198Z,4.63
2023-05-04T09:19:34.595Z,6.13
2023-05-04T09:22:14.622Z,5.27
2023-05-04T09:24:42.320Z,5.30
2023-05-04T09:27:11.141Z,4.67
2023-05-04T09:29:39.760Z,4.10
2023-05-04T09:32:16.205Z,5.40
2023-05-04T09:34:51.608Z,5.43
2023-05-04T09:37:22.105Z,4.60
2023-05-04T09:39:57.353Z,4.60
2023-05-04T09:42:26.751Z,5.47
2023-05-04T09:45:03.344Z,5.77
2023-05-04T09:47:35.728Z,5.83
2023-05-04T09:50:20.273Z,4.30
2023-05-04T09:52:51.260Z,4.97
2023-05-04T09:55:20.272Z,5.63
2023-05-04T09:57:50.423Z,6.43
2023-05-04T10:00:19.448Z,3.93
2023-05-04T10:02:48.453Z,4.63
2023-05-04T10:05:18.374Z,4.90
2023-05-04T10:07:46.623Z,4.03
2023-05-04T10:10:16.512Z,4.47
2023-05-04T10:12:45.598Z,4.37
2023-05-04T10:15:13.926Z,5.00
2023-05-04T10:17:56.367Z,4.93
2023-05-04T10:20:39.768Z,4.67
2023-05-04T10:23:27.138Z,4.67
2023-05-04T10:26:15.482Z,4.13
2023-05-04T10:28:53.609Z,5.00
2023-05-04T10:31:22.299Z,4.47
2023-05-04T10:33:50.090Z,5.93
2023-05-04T10:36:18.380Z,3.37
2023-05-04T10:38:46.385Z,4.20
2023-05-04T10:41:16.353Z,4.83
2023-05-04T10:43:48.622Z,3.93
2023-05-04T10:46:21.384Z,4.30
2023-05-04T10:48:49.250Z,3.97
2023-05-04T10:51:20.851Z,4.80
2023-05-04T10:53:48.739Z,4.50
2023-05-04T10:56:24.675Z,3.60
2023-05-04T10:58:52.923Z,4.23
2023-05-04T11:01:21.703Z,4.27
2023-05-04T11:03:50.575Z,5.10
2023-05-04T11:06:23.348Z,4.00
2023-05-04T11:09:01.348Z,4.07
2023-05-04T11:11:33.134Z,5.17
2023-05-04T11:14:01.489Z,3.63
2023-05-04T11:16:29.319Z,4.83
2023-05-04T11:19:08.423Z,4.33
2023-05-04T11:21:36.552Z,3.80
2023-05-04T11:24:04.549Z,4.87
2023-05-04T11:26:33.674Z,3.33
2023-05-04T11:29:01.296Z,4.30
2023-05-04T11:31:29.091Z,4.67
2023-05-04T11:33:56.928Z,5.20
2023-05-04T11:36:25.391Z,5.00
2023-05-04T11:38:57.607Z,3.47
2023-05-04T11:41:27.121Z,4.20
2023-05-04T11:43:56.566Z,4.40
2023-05-04T11:46:24.654Z,3.77
2023-05-04T11:48:52.323Z,2.83
2023-05-04T11:51:24.375Z,3.43
2023-05-04T11:53:52.556Z,3.53
2023-05-04T11:56:20.333Z,3.30
2023-05-04T11:58:48.081Z,4.13
2023-05-04T12:01:17.823Z,3.90
2023-05-04T12:03:53.954Z,3.70
2023-05-04T12:06:32.136Z,3.77
2023-05-04T12:09:02.830Z,4.63
2023-05-04T12:11:30.449Z,4.75
2023-05-04T12:14:06.173Z,3.92
2023-05-04T12:16:35.231Z,3.05
2023-05-04T12:19:04.961Z,3.90
2023-05-04T12:21:33.276Z,4.00
2023-05-04T12:24:01.423Z,4.88
2023-05-04T12:26:29.775Z,3.78
2023-05-04T12:28:57.856Z,4.20
2023-05-04T12:31:25.861Z,3.85
2023-05-04T12:33:55.040Z,3.70
2023-05-04T12:36:22.880Z,3.85
2023-05-04T12:38:50.485Z,2.25
2023-05-04T12:41:18.091Z,2.42
2023-05-04T12:43:45.710Z,3.20
2023-05-04T12:46:13.888Z,4.03
2023-05-04T12:48:41.493Z,2.88
2023-05-04T12:51:10.744Z,3.90
2023-05-04T12:53:38.419Z,3.42
2023-05-04T12:56:06.885Z,4.50
2023-05-04T12:58:34.688Z,3.25
2023-05-04T13:01:02.502Z,2.35
2023-05-04T13:03:30.212Z,3.50
2023-05-04T13:05:58.718Z,3.88
2023-05-04T13:08:27.680Z,4.22
2023-05-04T13:10:55.466Z,4.13
2023-05-04T13:13:28.301Z,4.10
2023-05-04T13:15:56.615Z,2.88
2023-05-04T13:18:27.224Z,3.63
2023-05-04T13:20:55.185Z,3.58
2023-05-04T13:23:23.306Z,3.28
2023-05-04T13:25:53.003Z,3.58
2023-05-04T13:28:20.758Z,2.85
2023-05-04T13:30:48.502Z,3.53
2023-05-04T13:33:27.954Z,3.05
2023-05-04T13:35:57.607Z,3.83
2023-05-04T13:38:25.598Z,3.45
2023-05-04T13:40:54.638Z,3.47
2023-05-04T13:43:22.561Z,2.97
2023-05-04T13:45:50.217Z,3.13
2023-05-04T13:48:18.158Z,3.33
2023-05-04T13:50:45.912Z,3.60
2023-05-04T13:53:13.804Z,3.03
2023-05-04T13:55:41.501Z,3.28
2023-05-04T13:58:10.585Z,3.38
2023-05-04T14:00:38.297Z,2.55
2023-05-04T14:03:06.196Z,4.03
2023-05-04T14:05:35.546Z,3.90
2023-05-04T14:08:03.369Z,4.20
2023-05-04T14:10:31.024Z,3.83
2023-05-04T14:12:58.961Z,3.50
2023-05-04T14:15:28.895Z,4.72
2023-05-04T14:17:56.591Z,3.08
2023-05-04T14:20:24.534Z,3.70
2023-05-04T14:22:52.144Z,3.80
2023-05-04T14:25:21.374Z,3.80
2023-05-04T14:27:49.026Z,3.95
2023-05-04T14:30:17.450Z,3.55
2023-05-04T14:32:46.506Z,4.18
2023-05-04T14:35:15.680Z,4.82
2023-05-04T14:37:43.324Z,5.05
2023-05-04T14:40:11.583Z,4.03
2023-05-04T14:42:39.602Z,5.65
2023-05-04T14:45:08.590Z,4.15
2023-05-04T14:47:36.699Z,4.50
2023-05-04T14:50:07.513Z,5.03
2023-05-04T14:52:35.685Z,3.33
2023-05-04T14:55:04.311Z,3.58
2023-05-04T14:57:31.942Z,5.25
2023-05-04T14:59:59.837Z,4.50
2023-05-04T15:02:27.749Z,5.20
2023-05-04T15:04:55.422Z,3.42
2023-05-04T15:07:24.634Z,4.78
2023-05-04T15:09:52.294Z,3.67
2023-05-04T15:12:20.049Z,4.75
2023-05-04T15:14:47.679Z,3.10
2023-05-04T15:17:17.211Z,4.47
2023-05-04T15:19:45.830Z,3.40
2023-05-04T15:22:13.578Z,4.32
2023-05-04T15:24:42.590Z,4.00
2023-05-04T15:27:10.511Z,3.28
2023-05-04T15:29:38.338Z,3.15
2023-05-04T15:32:06.794Z,4.25
2023-05-04T15:34:34.412Z,3.63
2023-05-04T15:37:02.035Z,2.70
2023-05-04T15:39:30.783Z,4.47
2023-05-04T15:41:59.768Z,3.78
2023-05-04T15:44:28.074Z,3.65
2023-05-04T15:46:56.239Z,3.72
2023-05-04T15:49:24.010Z,4.38
2023-05-04T15:51:53.342Z,3.83
2023-05-04T15:54:21.547Z,3.60
2023-05-04T15:56:49.790Z,4.22
2023-05-04T15:59:19.036Z,4.03
2023-05-04T16:01:47.082Z,3.58
2023-05-04T16:04:15.169Z,4.75
2023-05-04T16:06:42.816Z,2.80
2023-05-04T16:09:10.745Z,3.55
2023-05-04T16:11:38.357Z,4.45
2023-05-04T16:14:06.132Z,3.80
2023-05-04T16:16:35.183Z,3.50
2023-05-04T16:19:02.810Z,3.83
2023-05-04T16:21:30.537Z,4.18
2023-05-04T16:23:58.225Z,6.03
2023-05-04T16:26:26.041Z,3.90
2023-05-04T16:28:53.941Z,3.78
2023-05-04T16:31:21.712Z,4.70
2023-05-04T16:33:50.826Z,3.17
2023-05-04T16:36:18.691Z,3.70
2023-05-04T16:38:48.500Z,3.95
2023-05-04T16:41:17.268Z,5.05
2023-05-04T16:43:44.885Z,4.10
2023-05-04T16:46:12.661Z,4.25
2023-05-04T16:48:40.332Z,4.25
2023-05-04T16:51:09.494Z,5.22
2023-05-04T16:53:37.255Z,4.25
2023-05-04T16:56:05.224Z,4.10
2023-05-04T16:58:33.028Z,4.10
2023-05-04T17:01:00.722Z,3.58
2023-05-04T17:03:28.645Z,4.60
2023-05-04T17:05:56.252Z,4.03
2023-05-04T17:08:25.761Z,4.93
2023-05-04T17:10:53.363Z,3.90
2023-05-04T17:13:21.289Z,3.33
2023-05-04T17:15:49.091Z,4.80
2023-05-04T17:18:16.954Z,5.17
2023-05-04T17:20:44.566Z,4.43
2023-05-04T17:23:12.444Z,3.83
2023-05-04T17:25:41.677Z,5.17
2023-05-04T17:28:09.563Z,4.53
2023-05-04T17:30:38.057Z,3.23
2023-05-04T17:33:05.863Z,4.77
2023-05-04T17:35:33.518Z,3.70
2023-05-04T17:38:01.448Z,4.37
2023-05-04T17:40:29.438Z,4.13
2023-05-04T17:42:58.601Z,3.57
2023-05-04T17:45:26.377Z,3.60
2023-05-04T17:47:54.121Z,3.73
2023-05-04T17:50:22.153Z,3.67
2023-05-04T17:52:52.728Z,3.60
2023-05-04T17:55:20.697Z,3.20
2023-05-04T17:57:48.291Z,3.23
2023-05-04T18:00:18.039Z,2.67
2023-05-04T18:02:45.750Z,3.60
2023-05-04T18:05:13.837Z,3.07
2023-05-04T18:07:41.476Z,3.90
2023-05-04T18:10:09.932Z,4.23
2023-05-04T18:12:38.526Z,3.73
2023-05-04T18:15:08.181Z,4.77
2023-05-04T18:17:37.986Z,6.63
2023-05-04T18:20:08.885Z,4.57
2023-05-04T18:22:37.253Z,4.77
2023-05-04T18:25:05.405Z,3.73
2023-05-04T18:27:33.500Z,3.53
2023-05-04T18:30:01.249Z,3.43
2023-05-04T18:32:29.011Z,3.70
2023-05-04T18:34:58.617Z,4.87
2023-05-04T18:37:26.662Z,5.00
2023-05-04T18:39:54.432Z,5.40
2023-05-04T18:42:22.189Z,4.97
2023-05-04T18:44:51.607Z,3.83
2023-05-04T18:47:19.503Z,4.17
2023-05-04T18:49:50.976Z,5.13
2023-05-04T18:52:19.983Z,6.10
2023-05-04T18:54:47.615Z,5.67
2023-05-04T18:57:15.262Z,3.87
2023-05-04T18:59:42.878Z,3.70
2023-05-04T19:02:11.020Z,3.87
2023-05-04T19:04:38.654Z,4.43
2023-05-04T19:07:06.551Z,3.57
2023-05-04T19:09:35.896Z,3.83
2023-05-04T19:12:04.896Z,5.13
2023-05-04T19:14:32.888Z,4.37
2023-05-04T19:17:02.232Z,7.73
2023-05-04T19:19:30.176Z,6.87
2023-05-04T19:21:58.498Z,6.67
2023-05-04T19:24:26.303Z,6.40
2023-05-04T19:26:55.911Z,4.93
2023-05-04T19:29:25.634Z,4.97
2023-05-04T19:31:56.114Z,3.97
2023-05-04T19:34:23.882Z,3.97
2023-05-04T19:36:52.751Z,4.10
2023-05-04T19:39:20.995Z,6.57
2023-05-04T19:41:48.859Z,4.73
2023-05-04T19:44:17.903Z,4.80
2023-05-04T19:46:47.216Z,4.60
2023-05-04T19:49:16.110Z,5.13
2023-05-04T19:51:46.183Z,5.30
2023-05-04T19:54:18.965Z,5.47
2023-05-04T19:56:46.765Z,4.63
2023-05-04T19:59:14.400Z,4.13
2023-05-04T20:01:43.702Z,5.27
2023-05-04T20:04:12.241Z,4.57
2023-05-04T20:06:40.081Z,4.37
2023-05-04T20:09:07.731Z,3.60
2023-05-04T20:11:36.250Z,5.23
2023-05-04T20:14:03.879Z,4.63
2023-05-04T20:16:31.783Z,4.40
2023-05-04T20:19:03.595Z,4.30
2023-05-04T20:21:32.143Z,6.00
2023-05-04T20:23:59.802Z,4.80
2023-05-04T20:26:27.537Z,4.87
2023-05-04T20:28:55.129Z,5.03
2023-05-04T20:31:22.994Z,4.60
2023-05-04T20:33:50.682Z,4.07
2023-05-04T20:36:19.670Z,4.03
2023-05-04T20:38:47.303Z,5.00
2023-05-04T20:41:15.088Z,3.10
2023-05-04T20:43:42.797Z,3.67
2023-05-04T20:46:10.744Z,4.73
2023-05-04T20:48:38.838Z,3.80
2023-05-04T20:53:42.267Z,3.87
2023-05-04T20:56:10.669Z,5.07
2023-05-04T20:58:38.674Z,4.33
2023-05-04T21:01:06.810Z,3.97
2023-05-04T21:03:34.810Z,3.20
2023-05-04T21:06:02.882Z,4.37
2023-05-04T21:08:30.600Z,4.73
2023-05-04T21:10:59.596Z,2.87
2023-05-04T21:13:27.251Z,4.20
2023-05-04T21:15:55.231Z,4.53
2023-05-04T21:18:22.845Z,4.87
2023-05-04T21:20:50.491Z,5.03
2023-05-04T21:23:18.543Z,5.10
2023-05-04T21:25:46.148Z,5.50
2023-05-04T21:28:15.234Z,4.30
2023-05-04T21:30:43.425Z,3.80
2023-05-04T21:33:11.128Z,3.13
2023-05-04T21:35:38.733Z,4.83
2023-05-04T21:38:06.765Z,4.70
2023-05-04T21:40:34.508Z,5.77
2023-05-04T21:43:02.430Z,5.00
2023-05-04T21:45:32.974Z,4.23
2023-05-04T21:48:02.316Z,3.50
2023-05-04T21:50:31.027Z,4.67
2023-05-04T21:52:58.632Z,4.93
2023-05-04T21:55:26.397Z,4.83
2023-05-04T21:57:54.069Z,4.17
2023-05-04T22:00:22.245Z,4.00
2023-05-04T22:02:51.533Z,3.60
2023-05-04T22:05:22.255Z,2.87
2023-05-04T22:07:50.150Z,5.03
2023-05-04T22:10:18.191Z,4.77
2023-05-04T22:12:45.833Z,3.77
2023-05-04T22:15:14.279Z,5.37
2023-05-04T22:17:41.977Z,5.37
2023-05-04T22:20:12.537Z,6.03
2023-05-04T22:22:40.131Z,4.80
2023-05-04T22:25:08.399Z,4.83
2023-05-04T22:27:36.042Z,3.87
2023-05-04T22:30:03.968Z,5.33
2023-05-04T22:32:31.808Z,3.70
2023-05-04T22:34:59.530Z,4.03
2023-05-04T22:37:28.522Z,4.40
2023-05-04T22:39:56.209Z,6.07
2023-05-04T22:42:23.940Z,4.67
2023-05-04T22:44:51.564Z,6.00
2023-05-04T22:47:19.175Z,4.50
2023-05-04T22:49:46.998Z,5.30
2023-05-04T22:52:14.778Z,5.50
2023-05-04T22:54:43.814Z,4.50
2023-05-04T22:57:11.597Z,6.03
2023-05-04T22:59:39.222Z,6.50
2023-05-04T23:02:07.261Z,4.83
2023-05-04T23:04:34.992Z,5.10
2023-05-04T23:07:02.775Z,4.37
2023-05-04T23:09:30.591Z,4.30
2023-05-04T23:12:00.046Z,4.70
2023-05-04T23:14:27.653Z,4.83
2023-05-04T23:16:55.382Z,3.70
2023-05-04T23:19:23.005Z,6.20
2023-05-04T23:21:50.747Z,3.57
2023-05-04T23:24:18.378Z,5.23
2023-05-04T23:26:46.111Z,4.37
2023-05-04T23:29:15.149Z,6.03
2023-05-04T23:31:43.216Z,5.90
2023-05-04T23:34:11.047Z,5.27
2023-05-04T23:36:38.663Z,5.07
2023-05-04T23:39:06.422Z,6.03
2023-05-04T23:41:34.124Z,4.50
2023-05-04T23:44:02.054Z,5.67
2023-05-04T23:46:31.022Z,5.53
2023-05-04T23:48:58.822Z,3.97
2023-05-04T23:51:28.408Z,4.00
2023-05-04T23:53:56.456Z,3.73
2023-05-04T23:56:24.084Z,5.07
2023-05-04T23:58:51.844Z,4.80
